Time;durP1;ratioP1;P1;durP2;ratioP2;P2;SDS_P1;SDS_P2;PMS_P1;PMS_P2;Temp;Humidity;BMP_temperature;BMP_pressure;BME280_temperature;BME280_humidity;BME280_pressure;Samples;Min_cycle;Max_cycle;Signal;HPM_P1;HPM_P2
2022/08/29 00:01:47;;;;;;;4.43;1.80;;;14.80;99.90;;;;;;5051581;28;20185;-42
2022/08/29 00:04:13;;;;;;;4.10;1.80;;;14.80;99.90;;;;;;5051459;28;20193;-42
2022/08/29 00:06:39;;;;;;;2.37;1.70;;;14.80;99.90;;;;;;5050727;28;20209;-42
2022/08/29 00:09:05;;;;;;;3.33;1.63;;;14.80;99.90;;;;;;5050911;28;20435;-43
2022/08/29 00:11:31;;;;;;;2.67;1.97;;;14.80;99.90;;;;;;5051450;28;20424;-45
2022/08/29 00:13:57;;;;;;;2.00;1.63;;;14.80;99.90;;;;;;5051453;28;20288;-44
2022/08/29 00:16:23;;;;;;;3.73;2.23;;;14.80;99.90;;;;;;5050813;28;20277;-44
2022/08/29 00:18:49;;;;;;;1.90;1.63;;;14.80;99.90;;;;;;5051202;28;20886;-45
2022/08/29 00:21:14;;;;;;;2.80;1.60;;;14.80;99.90;;;;;;5062099;28;20188;-44
2022/08/29 00:23:42;;;;;;;3.40;1.93;;;14.70;99.90;;;;;;5049550;28;20563;-44
2022/08/29 00:26:08;;;;;;;2.10;1.60;;;14.70;99.90;;;;;;5049766;28;20582;-44
2022/08/29 00:28:34;;;;;;;2.90;1.63;;;14.70;99.90;;;;;;5050407;28;20467;-46
2022/08/29 00:31:00;;;;;;;2.40;1.80;;;14.60;99.90;;;;;;5050922;28;20680;-45
2022/08/29 00:33:26;;;;;;;2.60;1.83;;;14.60;99.90;;;;;;5051041;28;20193;-46
2022/08/29 00:35:52;;;;;;;2.03;1.60;;;14.50;99.90;;;;;;5050777;28;20466;-42
2022/08/29 00:38:18;;;;;;;3.47;1.70;;;14.50;99.90;;;;;;5050002;28;20424;-44
2022/08/29 00:40:53;;;;;;;3.13;1.90;;;14.40;99.90;;;;;;5050904;28;20182;-44
2022/08/29 00:43:23;;;;;;;2.97;1.60;;;14.40;99.90;;;;;;5050806;28;20424;-42
2022/08/29 00:46:04;;;;;;;2.80;1.80;;;14.40;99.90;;;;;;5050595;28;20428;-42
2022/08/29 00:48:30;;;;;;;2.53;2.30;;;14.40;99.90;;;;;;5049534;28;20455;-43
2022/08/29 00:51:02;;;;;;;3.70;2.10;;;14.30;99.90;;;;;;5050247;28;21290;-46
2022/08/29 00:53:37;;;;;;;2.30;1.90;;;14.30;99.90;;;;;;5038232;28;20455;-43
2022/08/29 00:56:05;;;;;;;4.47;1.97;;;14.20;99.90;;;;;;5049546;28;20495;-42
2022/08/29 00:58:36;;;;;;;5.13;1.90;;;14.20;99.90;;;;;;5049896;28;20432;-44
2022/08/29 01:01:03;;;;;;;3.10;1.80;;;14.30;99.90;;;;;;5050383;28;20423;-45
2022/08/29 01:03:32;;;;;;;2.77;1.67;;;14.20;99.90;;;;;;5050164;28;20435;-43
2022/08/29 01:05:59;;;;;;;4.70;2.03;;;14.20;99.90;;;;;;5050338;28;20542;-44
2022/08/29 01:08:24;;;;;;;4.20;2.13;;;14.20;99.90;;;;;;5049464;28;21025;-45
2022/08/29 01:13:39;;;;;;;6.37;2.20;;;14.10;99.90;;;;;;5049845;28;20755;-43
2022/08/29 01:16:07;;;;;;;2.80;1.90;;;14.00;99.90;;;;;;5050256;28;20432;-43
2022/08/29 01:18:35;;;;;;;3.50;1.77;;;14.00;99.90;;;;;;5049518;28;20458;-46
2022/08/29 01:21:23;;;;;;;3.47;2.47;;;14.00;99.90;;;;;;5061214;28;20440;-43
2022/08/29 01:24:04;;;;;;;3.47;1.70;;;14.10;99.90;;;;;;5048477;28;20440;-44
2022/08/29 01:26:31;;;;;;;4.07;2.00;;;14.20;99.90;;;;;;5048572;28;20446;-42
2022/08/29 01:28:57;;;;;;;3.30;1.90;;;14.10;99.90;;;;;;5048777;28;20447;-47
2022/08/29 01:31:26;;;;;;;2.07;1.57;;;14.10;99.90;;;;;;5049994;28;20424;-42
2022/08/29 01:33:56;;;;;;;3.53;2.40;;;14.00;99.90;;;;;;5049516;28;20427;-45
2022/08/29 01:36:33;;;;;;;6.93;2.20;;;13.90;99.90;;;;;;5049758;28;20544;-43
2022/08/29 01:38:59;;;;;;;4.83;2.77;;;13.90;99.90;;;;;;5049468;28;20422;-42
2022/08/29 01:41:25;;;;;;;3.40;1.80;;;13.80;99.90;;;;;;5048494;28;20436;-46
2022/08/29 01:43:55;;;;;;;3.60;2.50;;;13.70;99.90;;;;;;5049619;28;20208;-47
2022/08/29 01:46:27;;;;;;;1.90;1.67;;;13.70;99.90;;;;;;5049631;28;20462;-44
2022/08/29 01:48:53;;;;;;;2.10;1.90;;;13.60;99.90;;;;;;5047564;28;20435;-45
2022/08/29 01:51:19;;;;;;;3.80;2.20;;;13.60;99.90;;;;;;5049211;28;20507;-45
2022/08/29 01:53:45;;;;;;;2.53;2.20;;;13.50;99.90;;;;;;5049448;28;20841;-44
2022/08/29 01:56:16;;;;;;;3.20;2.30;;;13.50;99.90;;;;;;5047303;28;20507;-42
2022/08/29 01:58:44;;;;;;;3.80;2.17;;;13.40;99.90;;;;;;5048585;28;20220;-45
2022/08/29 02:01:10;;;;;;;2.20;1.80;;;13.40;99.90;;;;;;5049432;28;20416;-42
2022/08/29 02:03:37;;;;;;;3.33;1.77;;;13.40;99.90;;;;;;5049124;28;20429;-43
2022/08/29 02:06:03;;;;;;;4.50;3.07;;;13.40;99.90;;;;;;5049187;28;20448;-45
2022/08/29 02:08:29;;;;;;;4.20;2.00;;;13.30;99.90;;;;;;5048490;28;20468;-42
2022/08/29 02:10:57;;;;;;;3.10;1.77;;;13.30;99.90;;;;;;5049381;28;20427;-42
2022/08/29 02:13:23;;;;;;;2.77;1.90;;;13.20;99.90;;;;;;5049377;28;20181;-43
2022/08/29 02:15:49;;;;;;;2.27;1.60;;;13.20;99.90;;;;;;5049083;28;20458;-45
2022/08/29 02:18:17;;;;;;;5.17;1.90;;;13.20;99.90;;;;;;5048462;28;20984;-43
2022/08/29 02:20:43;;;;;;;3.27;2.20;;;13.20;99.90;;;;;;5061011;28;20926;-46
2022/08/29 02:23:09;;;;;;;3.43;2.10;;;13.20;99.90;;;;;;5049185;28;20420;-48
2022/08/29 02:25:41;;;;;;;3.23;2.20;;;13.20;99.90;;;;;;5048973;28;21118;-43
2022/08/29 02:28:10;;;;;;;4.33;2.20;;;13.10;99.90;;;;;;5048492;28;20993;-44
2022/08/29 02:30:41;;;;;;;2.00;1.80;;;13.10;99.90;;;;;;5048894;28;21219;-48
2022/08/29 02:33:07;;;;;;;3.20;2.20;;;13.00;99.90;;;;;;5048970;28;20483;-44
2022/08/29 02:35:34;;;;;;;5.43;2.10;;;13.00;99.90;;;;;;5048953;28;20448;-45
2022/08/29 02:38:00;;;;;;;2.50;1.80;;;13.00;99.90;;;;;;5048428;28;20486;-43
2022/08/29 02:40:27;;;;;;;2.17;1.70;;;13.00;99.90;;;;;;5051729;28;20432;-47
2022/08/29 02:42:54;;;;;;;2.90;2.00;;;12.90;99.90;;;;;;5053182;28;20523;-43
2022/08/29 02:45:21;;;;;;;2.73;1.70;;;12.90;99.90;;;;;;5052758;28;20493;-44
2022/08/29 02:47:47;;;;;;;3.40;1.63;;;12.90;99.90;;;;;;5052510;28;20460;-45
2022/08/29 02:50:13;;;;;;;2.70;1.83;;;13.00;99.90;;;;;;5051563;28;20728;-45
2022/08/29 02:52:40;;;;;;;3.97;1.83;;;12.90;99.90;;;;;;5052993;28;20750;-47
2022/08/29 02:55:08;;;;;;;4.17;2.27;;;12.90;99.90;;;;;;5051461;28;20428;-44
2022/08/29 02:57:34;;;;;;;4.13;1.93;;;13.00;99.90;;;;;;5051391;28;20424;-45
2022/08/29 03:00:00;;;;;;;4.60;1.93;;;13.00;99.90;;;;;;5052500;28;20841;-43
2022/08/29 03:02:26;;;;;;;1.73;1.60;;;13.00;99.90;;;;;;5051229;28;20420;-44
2022/08/29 03:04:52;;;;;;;5.57;2.20;;;13.00;99.90;;;;;;5052691;28;20620;-44
2022/08/29 03:07:18;;;;;;;2.93;2.20;;;13.10;99.90;;;;;;5052154;28;20463;-42
2022/08/29 03:09:44;;;;;;;4.53;2.23;;;13.00;99.90;;;;;;5051191;28;20632;-45
2022/08/29 03:12:09;;;;;;;2.47;2.03;;;13.00;99.90;;;;;;5052472;28;20428;-44
2022/08/29 03:14:35;;;;;;;2.30;2.10;;;13.00;99.90;;;;;;5052181;28;20190;-47
2022/08/29 03:17:01;;;;;;;2.17;1.97;;;13.00;99.90;;;;;;5051811;28;20209;-45
2022/08/29 03:19:27;;;;;;;2.70;1.83;;;13.00;99.90;;;;;;5058429;28;20242;-43
2022/08/29 03:21:53;;;;;;;4.13;2.50;;;12.90;99.90;;;;;;5057900;28;20202;-44
2022/08/29 03:24:18;;;;;;;2.23;1.80;;;12.80;99.90;;;;;;5052359;28;20217;-45
2022/08/29 03:26:44;;;;;;;3.77;2.40;;;12.80;99.90;;;;;;5050306;28;20193;-42
2022/08/29 03:29:10;;;;;;;5.17;2.63;;;12.70;99.90;;;;;;5052071;28;20205;-42
2022/08/29 03:31:36;;;;;;;4.13;2.43;;;12.80;99.90;;;;;;5052062;28;20186;-45
2022/08/29 03:34:02;;;;;;;2.47;2.13;;;12.80;99.90;;;;;;5052290;28;20435;-45
2022/08/29 03:36:28;;;;;;;4.20;2.43;;;12.80;99.90;;;;;;5051792;28;20189;-45
2022/08/29 03:38:54;;;;;;;4.00;2.47;;;12.70;99.90;;;;;;5050233;28;20204;-45
2022/08/29 03:41:22;;;;;;;2.10;1.80;;;12.80;99.90;;;;;;5052181;28;20428;-45
2022/08/29 03:43:48;;;;;;;3.70;2.30;;;12.80;99.90;;;;;;5051568;28;20192;-50
2022/08/29 03:46:13;;;;;;;4.50;2.03;;;12.70;99.90;;;;;;5051972;28;20456;-42
2022/08/29 03:48:39;;;;;;;1.97;1.77;;;12.60;99.90;;;;;;5050992;28;20275;-43
2022/08/29 03:51:05;;;;;;;3.00;2.00;;;12.60;99.90;;;;;;5051084;28;20262;-44
2022/08/29 03:53:32;;;;;;;7.40;2.17;;;12.60;99.90;;;;;;5051754;28;20541;-44
2022/08/29 03:55:58;;;;;;;3.20;1.97;;;12.50;99.90;;;;;;5050865;28;20288;-44
2022/08/29 03:58:23;;;;;;;3.03;2.23;;;12.60;99.90;;;;;;5050663;28;20515;-42
2022/08/29 04:00:49;;;;;;;3.33;2.27;;;12.50;99.90;;;;;;5050435;28;20272;-46
2022/08/29 04:03:15;;;;;;;3.23;1.90;;;12.50;99.90;;;;;;5051526;28;20443;-43
2022/08/29 04:05:41;;;;;;;3.33;2.70;;;12.50;99.90;;;;;;5051426;28;20220;-42
2022/08/29 04:08:07;;;;;;;3.60;2.07;;;12.50;99.90;;;;;;5050806;28;20217;-43
2022/08/29 04:10:38;;;;;;;2.77;2.13;;;12.50;99.90;;;;;;5051305;28;20436;-42
2022/08/29 04:13:06;;;;;;;3.93;2.37;;;12.60;99.90;;;;;;5051382;28;20428;-43
2022/08/29 04:15:32;;;;;;;2.87;2.57;;;12.60;99.90;;;;;;5051303;28;20459;-42
2022/08/29 04:17:59;;;;;;;2.77;2.23;;;12.60;99.90;;;;;;5050853;28;20431;-47
2022/08/29 04:20:28;;;;;;;6.63;2.53;;;12.60;99.90;;;;;;5063455;28;20462;-43
2022/08/29 04:22:55;;;;;;;4.30;2.30;;;12.60;99.90;;;;;;5051271;28;20432;-44
2022/08/29 04:25:23;;;;;;;2.60;2.10;;;12.50;99.90;;;;;;5050900;28;20935;-45
2022/08/29 04:27:49;;;;;;;3.50;2.17;;;12.50;99.90;;;;;;5050468;28;20470;-45
2022/08/29 04:30:18;;;;;;;2.53;1.70;;;12.50;99.90;;;;;;5050886;28;20455;-48
2022/08/29 04:32:45;;;;;;;5.03;1.97;;;12.50;99.90;;;;;;5051145;28;20436;-45
2022/08/29 04:35:11;;;;;;;3.60;2.00;;;12.60;99.90;;;;;;5050901;28;20446;-48
2022/08/29 04:37:38;;;;;;;4.07;2.43;;;12.60;99.90;;;;;;5050439;28;20436;-49
2022/08/29 04:40:06;;;;;;;3.40;2.07;;;12.50;99.90;;;;;;5050631;28;21107;-43
2022/08/29 04:42:34;;;;;;;2.10;1.90;;;12.50;99.90;;;;;;5049461;28;20455;-42
2022/08/29 04:44:59;;;;;;;3.67;2.63;;;12.40;99.90;;;;;;5047353;28;20535;-42
2022/08/29 04:47:25;;;;;;;4.17;2.47;;;12.40;99.90;;;;;;5048446;28;20555;-47
2022/08/29 04:49:55;;;;;;;4.03;2.50;;;12.30;99.90;;;;;;5050198;28;20268;-44
2022/08/29 04:52:22;;;;;;;3.97;1.97;;;12.30;99.90;;;;;;5050383;28;20190;-47
2022/08/29 04:54:48;;;;;;;2.70;2.33;;;12.30;99.90;;;;;;5068116;28;20474;-45
2022/08/29 04:57:14;;;;;;;3.40;2.43;;;12.30;99.90;;;;;;5068318;28;20439;-43
2022/08/29 04:59:40;;;;;;;3.33;2.23;;;12.30;99.90;;;;;;5069674;28;20436;-44
2022/08/29 05:02:06;;;;;;;2.40;2.20;;;12.30;99.90;;;;;;5069757;28;20433;-43
2022/08/29 05:04:32;;;;;;;3.40;2.30;;;12.30;99.90;;;;;;5069440;28;20252;-42
2022/08/29 05:06:58;;;;;;;5.17;2.27;;;12.40;99.90;;;;;;5068608;28;20481;-48
2022/08/29 05:09:23;;;;;;;4.50;2.53;;;12.40;99.90;;;;;;5067916;28;20758;-46
2022/08/29 05:11:49;;;;;;;2.43;2.20;;;12.50;99.90;;;;;;5069422;28;20192;-42
2022/08/29 05:14:15;;;;;;;3.00;2.20;;;12.50;99.90;;;;;;5069452;28;20213;-42
2022/08/29 05:16:41;;;;;;;6.40;2.67;;;12.50;99.90;;;;;;5069446;28;20883;-43
2022/08/29 05:19:07;;;;;;;2.60;2.40;;;12.50;99.90;;;;;;5051639;28;20195;-46
2022/08/29 05:21:35;;;;;;;3.43;2.40;;;12.60;99.90;;;;;;5060413;28;20217;-44
2022/08/29 05:24:04;;;;;;;3.33;2.63;;;12.60;99.90;;;;;;5069972;28;20878;-43
2022/08/29 05:26:37;;;;;;;4.60;2.60;;;12.60;99.90;;;;;;5069869;28;20431;-42
2022/08/29 05:29:08;;;;;;;6.10;3.03;;;12.70;99.90;;;;;;5069789;28;20423;-42
2022/08/29 05:31:35;;;;;;;8.20;3.67;;;12.70;99.90;;;;;;5069795;28;20427;-42
2022/08/29 05:34:02;;;;;;;6.10;3.87;;;12.70;99.90;;;;;;5069522;28;20782;-43
2022/08/29 05:36:28;;;;;;;2.90;2.63;;;12.70;99.90;;;;;;5061174;28;20424;-43
2022/08/29 05:38:54;;;;;;;4.23;2.67;;;12.70;99.90;;;;;;5049050;28;20506;-42
2022/08/29 05:41:20;;;;;;;4.13;2.60;;;12.70;99.90;;;;;;5049746;28;20217;-42
2022/08/29 05:43:46;;;;;;;4.67;3.33;;;12.80;99.90;;;;;;5048232;28;20432;-43
2022/08/29 05:46:11;;;;;;;6.73;2.83;;;12.90;99.90;;;;;;5048283;28;20189;-43
2022/08/29 05:48:44;;;;;;;3.33;2.87;;;12.90;99.90;;;;;;5046904;28;20522;-42
2022/08/29 05:51:17;;;;;;;7.10;4.00;;;13.00;99.90;;;;;;5047334;28;20201;-43
2022/08/29 05:53:43;;;;;;;4.73;3.37;;;13.10;99.90;;;;;;5041680;28;20427;-42
2022/08/29 05:56:09;;;;;;;11.27;3.67;;;13.20;99.90;;;;;;5048487;28;20486;-46
2022/08/29 05:58:35;;;;;;;9.90;4.43;;;13.30;99.90;;;;;;5058280;28;20802;-44
2022/08/29 06:01:00;;;;;;;5.90;3.53;;;13.40;99.90;;;;;;5069586;28;20626;-48
2022/08/29 06:03:26;;;;;;;6.23;3.70;;;13.60;99.90;;;;;;5069160;28;20277;-42
2022/08/29 06:05:52;;;;;;;5.77;4.20;;;13.70;99.90;;;;;;5066553;28;20219;-47
2022/08/29 06:08:19;;;;;;;9.37;4.20;;;13.90;99.90;;;;;;5048531;28;20610;-42
2022/08/29 06:10:45;;;;;;;8.43;4.80;;;14.00;99.90;;;;;;5049768;28;20182;-47
2022/08/29 06:13:12;;;;;;;7.30;3.27;;;14.10;99.90;;;;;;5049196;28;20573;-45
2022/08/29 06:15:43;;;;;;;5.80;3.90;;;14.20;99.90;;;;;;5048810;28;20480;-43
2022/08/29 06:18:08;;;;;;;6.40;5.20;;;14.40;99.90;;;;;;5048721;28;21240;-43
2022/08/29 06:20:37;;;;;;;9.70;4.60;;;14.50;99.90;;;;;;5045035;28;20444;-44
2022/08/29 06:23:03;;;;;;;8.07;4.40;;;14.50;99.90;;;;;;5048391;28;20174;-45
2022/08/29 06:25:28;;;;;;;9.07;5.10;;;14.70;99.90;;;;;;5051545;28;20925;-45
2022/08/29 06:27:54;;;;;;;7.00;4.30;;;14.70;99.90;;;;;;5047816;28;20660;-44
2022/08/29 06:30:20;;;;;;;8.70;6.10;;;14.90;99.90;;;;;;5051145;28;20201;-42
2022/08/29 06:32:45;;;;;;;10.50;4.80;;;15.00;99.90;;;;;;5049244;28;20668;-42
2022/08/29 06:35:11;;;;;;;10.27;5.60;;;15.20;99.90;;;;;;5049035;28;20239;-44
2022/08/29 06:37:37;;;;;;;8.40;5.83;;;15.40;99.90;;;;;;5048301;28;20196;-43
2022/08/29 06:40:03;;;;;;;7.53;5.33;;;15.60;99.90;;;;;;5047617;28;20193;-43
2022/08/29 06:42:29;;;;;;;7.97;6.60;;;15.80;99.90;;;;;;5048913;28;20202;-45
2022/08/29 06:44:55;;;;;;;8.80;6.33;;;16.00;99.90;;;;;;5048568;28;20440;-48
2022/08/29 06:47:20;;;;;;;12.03;8.47;;;16.20;99.90;;;;;;5048373;28;20957;-45
2022/08/29 06:49:46;;;;;;;9.27;7.67;;;16.30;99.90;;;;;;5047670;28;20525;-46
2022/08/29 06:52:12;;;;;;;7.60;6.30;;;16.30;99.90;;;;;;5047089;28;20312;-43
2022/08/29 06:54:38;;;;;;;8.33;7.43;;;16.30;99.90;;;;;;5049043;28;20197;-43
2022/08/29 06:57:03;;;;;;;11.20;8.37;;;16.30;99.90;;;;;;5047376;28;20428;-42
2022/08/29 06:59:29;;;;;;;8.40;7.47;;;16.30;99.90;;;;;;5048217;28;20196;-43
2022/08/29 07:01:55;;;;;;;11.90;8.90;;;16.30;99.90;;;;;;5048874;28;20189;-47
2022/08/29 07:04:21;;;;;;;11.20;8.53;;;16.30;99.90;;;;;;5048466;28;20189;-42
2022/08/29 07:06:47;;;;;;;9.40;7.80;;;16.20;99.90;;;;;;5047853;28;20201;-44
2022/08/29 07:09:13;;;;;;;10.90;8.67;;;16.20;99.90;;;;;;5048664;28;20544;-47
2022/08/29 07:11:40;;;;;;;8.50;6.70;;;16.20;99.90;;;;;;5048703;28;20420;-43
2022/08/29 07:14:05;;;;;;;11.13;7.30;;;16.30;99.90;;;;;;5048263;28;20936;-47
2022/08/29 07:16:34;;;;;;;13.30;6.57;;;16.30;99.90;;;;;;5048679;28;20486;-44
2022/08/29 07:19:01;;;;;;;8.50;6.50;;;16.40;99.90;;;;;;5049512;28;20193;-44
2022/08/29 07:21:27;;;;;;;8.40;6.90;;;16.50;99.90;;;;;;5047316;28;20438;-47
2022/08/29 07:23:54;;;;;;;8.30;6.30;;;16.60;99.90;;;;;;5047086;28;20439;-45
2022/08/29 07:26:27;;;;;;;8.57;6.60;;;16.60;99.90;;;;;;5049606;28;20191;-44
2022/08/29 07:28:55;;;;;;;8.20;6.10;;;16.70;99.90;;;;;;5051167;28;20466;-44
2022/08/29 07:31:20;;;;;;;6.77;5.53;;;16.90;99.90;;;;;;5052171;28;20459;-46
2022/08/29 07:33:46;;;;;;;7.77;5.27;;;17.00;99.90;;;;;;5052012;28;20460;-48
2022/08/29 07:36:12;;;;;;;8.23;5.03;;;17.10;99.90;;;;;;5050640;28;20412;-47
2022/08/29 07:38:38;;;;;;;7.63;5.33;;;17.10;99.90;;;;;;5049978;28;20186;-45
2022/08/29 07:41:07;;;;;;;8.43;5.10;;;17.20;99.90;;;;;;5051718;28;20198;-45
2022/08/29 07:43:34;;;;;;;8.43;5.37;;;17.20;99.90;;;;;;5051684;28;20201;-45
2022/08/29 07:46:10;;;;;;;12.80;5.80;;;17.20;99.90;;;;;;5051669;28;20915;-43
2022/08/29 07:48:36;;;;;;;6.27;5.13;;;17.30;99.90;;;;;;5038553;28;20525;-44
2022/08/29 07:51:04;;;;;;;10.13;5.57;;;17.30;99.90;;;;;;5051509;28;20953;-42
2022/08/29 07:53:30;;;;;;;7.27;4.93;;;17.40;99.90;;;;;;5051593;28;21106;-43
2022/08/29 07:55:56;;;;;;;7.20;4.80;;;17.30;99.90;;;;;;5064052;28;20531;-44
2022/08/29 07:58:21;;;;;;;5.90;4.27;;;17.30;99.90;;;;;;5070421;28;20245;-45
2022/08/29 08:00:47;;;;;;;5.80;3.67;;;17.30;99.90;;;;;;5071195;28;20197;-45
2022/08/29 08:03:14;;;;;;;9.17;4.43;;;17.40;99.90;;;;;;5071593;28;20197;-42
2022/08/29 08:05:40;;;;;;;7.63;4.70;;;17.40;99.90;;;;;;5071156;28;20269;-46
2022/08/29 08:08:08;;;;;;;6.67;4.07;;;17.50;99.90;;;;;;5070821;28;21000;-43
2022/08/29 08:10:34;;;;;;;6.00;4.03;;;17.50;99.90;;;;;;5071172;28;20188;-43
2022/08/29 08:13:00;;;;;;;11.63;4.10;;;17.50;99.90;;;;;;5071363;28;20431;-45
2022/08/29 08:15:26;;;;;;;4.80;4.20;;;17.60;99.90;;;;;;5071192;28;20476;-45
2022/08/29 08:17:52;;;;;;;5.50;3.60;;;17.60;99.90;;;;;;5069391;28;20223;-46
2022/08/29 08:20:18;;;;;;;5.47;3.83;;;17.60;99.90;;;;;;5069612;28;20459;-45
2022/08/29 08:22:44;;;;;;;9.83;4.67;;;17.60;99.90;;;;;;5049728;28;20205;-42
2022/08/29 08:25:09;;;;;;;7.10;4.30;;;17.60;99.90;;;;;;5051053;28;20555;-47
2022/08/29 08:27:35;;;;;;;6.80;4.10;;;17.60;99.90;;;;;;5050563;28;20252;-45
2022/08/29 08:30:01;;;;;;;6.17;3.53;;;17.70;99.90;;;;;;5049618;28;20185;-47
2022/08/29 08:32:27;;;;;;;6.33;3.50;;;17.70;99.90;;;;;;5051112;28;20193;-46
2022/08/29 08:34:53;;;;;;;5.77;3.43;;;17.70;99.90;;;;;;5049525;28;20431;-47
2022/08/29 08:37:18;;;;;;;6.13;3.63;;;17.90;99.90;;;;;;5049917;28;20239;-45
2022/08/29 08:39:44;;;;;;;7.67;3.00;;;18.00;99.90;;;;;;5050719;28;20193;-42
2022/08/29 08:42:16;;;;;;;6.93;3.60;;;18.10;99.90;;;;;;5050911;28;20201;-45
2022/08/29 08:45:07;;;;;;;10.57;3.60;;;18.20;99.90;;;;;;5050697;28;20255;-42
2022/08/29 08:47:40;;;;;;;5.87;3.70;;;18.20;99.90;;;;;;5051694;28;20560;-46
2022/08/29 08:50:37;;;;;;;7.13;3.57;;;18.30;99.90;;;;;;5050560;28;20428;-42
2022/08/29 08:53:18;;;;;;;6.13;3.00;;;18.30;99.90;;;;;;5050611;28;20416;-46
2022/08/29 08:55:50;;;;;;;6.20;3.20;;;18.30;99.90;;;;;;5050044;28;20755;-46
2022/08/29 08:58:31;;;;;;;4.90;2.80;;;18.50;99.90;;;;;;5049716;28;20434;-43
2022/08/29 09:01:19;;;;;;;7.13;3.30;;;18.50;99.90;;;;;;5049258;28;20903;-43
2022/08/29 09:03:47;;;;;;;4.50;2.67;;;18.60;99.90;;;;;;5050470;28;20455;-45
2022/08/29 09:06:34;;;;;;;5.30;3.20;;;18.70;99.90;;;;;;5050456;28;20448;-42
2022/08/29 09:09:15;;;;;;;2.97;2.57;;;18.60;99.90;;;;;;5049867;28;20633;-45
2022/08/29 09:11:53;;;;;;;3.10;2.20;;;18.60;99.90;;;;;;5050540;28;20897;-44
2022/08/29 09:14:40;;;;;;;6.20;2.83;;;18.60;99.90;;;;;;5050005;28;20439;-47
2022/08/29 09:17:12;;;;;;;5.70;3.30;;;18.80;99.90;;;;;;5050144;28;20436;-45
2022/08/29 09:19:38;;;;;;;6.10;3.03;;;18.90;99.90;;;;;;5049510;28;20444;-45
2022/08/29 09:22:14;;;;;;;4.23;2.60;;;18.90;99.90;;;;;;5050617;28;20763;-46
2022/08/29 09:24:48;;;;;;;5.03;3.13;;;19.10;99.90;;;;;;5048276;28;20427;-44
2022/08/29 09:27:23;;;;;;;5.00;3.30;;;19.20;99.90;;;;;;5048345;28;20452;-45
2022/08/29 09:29:55;;;;;;;5.23;3.00;;;19.20;99.90;;;;;;5050111;28;20416;-43
2022/08/29 09:32:21;;;;;;;7.57;3.50;;;19.30;99.90;;;;;;5051333;28;20420;-42
2022/08/29 09:34:47;;;;;;;6.73;3.77;;;19.30;99.90;;;;;;5050441;28;20427;-44
2022/08/29 09:37:31;;;;;;;7.97;3.27;;;19.40;99.90;;;;;;5049244;28;20217;-44
2022/08/29 09:40:03;;;;;;;5.00;3.50;;;19.50;99.90;;;;;;5049600;28;20428;-42
2022/08/29 09:42:34;;;;;;;8.23;4.30;;;19.60;99.90;;;;;;5050656;28;20447;-45
2022/08/29 09:45:07;;;;;;;7.73;3.50;;;19.90;99.90;;;;;;5053625;28;20434;-43
2022/08/29 09:47:33;;;;;;;6.23;3.30;;;20.00;99.90;;;;;;5069268;28;21296;-44
2022/08/29 09:50:23;;;;;;;4.70;3.60;;;20.10;99.90;;;;;;5068942;28;20497;-44
2022/08/29 09:52:59;;;;;;;5.23;2.77;;;20.10;99.90;;;;;;5040896;28;20477;-48
2022/08/29 09:55:41;;;;;;;6.40;3.63;;;20.10;99.90;;;;;;5049455;28;20465;-42
2022/08/29 09:58:09;;;;;;;4.53;3.03;;;20.20;99.90;;;;;;5048735;28;20431;-45
2022/08/29 10:00:42;;;;;;;4.63;3.13;;;20.30;99.90;;;;;;5049435;28;20424;-44
2022/08/29 10:03:21;;;;;;;6.63;3.03;;;20.30;99.90;;;;;;5048044;28;20428;-44
2022/08/29 10:05:48;;;;;;;5.93;3.13;;;20.50;99.90;;;;;;5049446;28;20462;-41
2022/08/29 10:08:35;;;;;;;5.67;3.00;;;20.60;99.90;;;;;;5048859;28;20475;-46
2022/08/29 10:11:16;;;;;;;5.50;2.97;;;20.80;99.90;;;;;;5048151;28;20447;-44
2022/08/29 10:13:55;;;;;;;4.47;3.43;;;20.80;99.20;;;;;;5049313;28;20772;-46
2022/08/29 10:16:27;;;;;;;5.20;3.30;;;20.80;98.60;;;;;;5069677;28;20901;-47
2022/08/29 10:19:09;;;;;;;5.00;3.03;;;20.80;98.90;;;;;;5050359;28;20420;-42
2022/08/29 10:21:51;;;;;;;5.47;2.83;;;20.90;98.60;;;;;;5056391;28;20926;-42
2022/08/29 10:24:45;;;;;;;3.33;2.60;;;20.90;99.10;;;;;;5049214;28;21079;-48
2022/08/29 10:27:36;;;;;;;5.17;2.70;;;21.00;98.60;;;;;;5048266;28;20475;-49
2022/08/29 10:30:15;;;;;;;6.47;3.00;;;21.10;98.00;;;;;;5063119;28;20480;-44
2022/08/29 10:33:14;;;;;;;3.40;2.40;;;21.00;97.70;;;;;;5069183;28;20443;-48
2022/08/29 10:35:52;;;;;;;4.30;2.73;;;21.10;97.90;;;;;;5053256;28;20416;-44
2022/08/29 10:38:31;;;;;;;6.40;2.63;;;21.20;97.90;;;;;;5063609;28;20554;-44
2022/08/29 10:41:00;;;;;;;5.80;2.40;;;21.20;98.20;;;;;;5069047;28;20947;-46
2022/08/29 10:43:38;;;;;;;6.63;2.83;;;21.10;97.00;;;;;;5068873;28;20419;-48
2022/08/29 10:46:23;;;;;;;4.00;2.83;;;20.90;97.70;;;;;;5067728;28;20427;-45
2022/08/29 10:49:03;;;;;;;3.57;2.33;;;20.90;98.40;;;;;;5067552;28;20513;-44
2022/08/29 10:51:59;;;;;;;5.80;2.50;;;21.00;98.50;;;;;;5056507;28;21088;-48
2022/08/29 10:54:57;;;;;;;3.93;2.50;;;21.30;99.40;;;;;;5051477;28;20420;-43
2022/08/29 10:57:59;;;;;;;4.87;2.50;;;21.60;98.90;;;;;;5063702;28;20423;-47
2022/08/29 11:00:46;;;;;;;3.83;2.83;;;21.80;97.80;;;;;;5052432;28;20432;-45
2022/08/29 11:03:27;;;;;;;7.80;2.90;;;21.90;97.80;;;;;;5045103;28;20432;-46
2022/08/29 11:06:04;;;;;;;6.47;2.97;;;22.00;96.70;;;;;;5051572;28;20549;-47
2022/08/29 11:08:38;;;;;;;2.97;2.20;;;22.20;97.70;;;;;;5051223;28;21013;-44
2022/08/29 11:11:05;;;;;;;5.60;3.00;;;22.20;97.00;;;;;;5050369;28;20486;-44
2022/08/29 11:13:40;;;;;;;4.30;2.43;;;22.00;95.80;;;;;;5046614;28;20428;-46
2022/08/29 11:16:21;;;;;;;4.53;2.70;;;21.90;96.20;;;;;;5048383;28;20451;-47
2022/08/29 11:19:09;;;;;;;5.27;2.60;;;21.80;96.80;;;;;;5050403;28;20496;-46
2022/08/29 11:22:03;;;;;;;4.53;2.33;;;21.70;96.30;;;;;;5060606;28;20423;-47
2022/08/29 11:24:32;;;;;;;5.07;2.50;;;21.50;97.20;;;;;;5053013;28;20423;-46
2022/08/29 11:27:19;;;;;;;6.47;3.17;;;21.60;97.70;;;;;;5051373;28;20838;-44
2022/08/29 11:29:48;;;;;;;5.57;2.63;;;21.80;97.90;;;;;;5059883;28;20420;-44
2022/08/29 11:32:46;;;;;;;7.30;2.63;;;22.00;97.70;;;;;;5052310;28;20447;-43
2022/08/29 11:35:21;;;;;;;4.13;2.43;;;22.10;96.80;;;;;;5050935;28;20424;-49
2022/08/29 11:37:59;;;;;;;5.57;2.57;;;22.30;97.60;;;;;;5051079;28;20420;-46
2022/08/29 11:41:00;;;;;;;5.43;2.47;;;22.50;97.40;;;;;;5049402;28;21007;-47
2022/08/29 11:43:34;;;;;;;3.93;2.40;;;22.50;95.00;;;;;;5050378;28;20447;-47
2022/08/29 11:46:02;;;;;;;2.57;2.37;;;22.60;94.60;;;;;;5048284;28;20961;-44
2022/08/29 11:48:33;;;;;;;4.50;2.60;;;22.60;95.80;;;;;;5050559;28;20487;-42
2022/08/29 11:51:19;;;;;;;3.90;2.20;;;22.50;95.10;;;;;;5050340;28;20445;-43
2022/08/29 11:53:46;;;;;;;4.90;2.30;;;22.50;95.30;;;;;;5059226;28;20430;-48
2022/08/29 11:56:12;;;;;;;5.33;2.63;;;22.60;96.80;;;;;;5048133;28;20436;-43
2022/08/29 11:58:44;;;;;;;6.80;3.50;;;22.60;94.70;;;;;;5046984;28;20779;-47
2022/08/29 12:01:34;;;;;;;3.90;2.67;;;22.60;94.50;;;;;;5052738;28;20463;-44
2022/08/29 12:04:08;;;;;;;3.37;2.33;;;22.70;95.90;;;;;;5049900;28;20519;-44
2022/08/29 12:06:49;;;;;;;4.60;2.33;;;22.70;95.40;;;;;;5050907;28;20432;-45
2022/08/29 12:09:39;;;;;;;8.70;2.60;;;22.80;94.50;;;;;;5047848;28;20438;-45
2022/08/29 12:12:11;;;;;;;3.77;2.60;;;22.90;92.80;;;;;;5050119;28;20412;-45
2022/08/29 12:14:45;;;;;;;5.17;3.23;;;23.00;93.50;;;;;;5054105;28;20848;-42
2022/08/29 12:17:30;;;;;;;3.20;2.63;;;23.00;95.50;;;;;;5054602;28;20516;-47
2022/08/29 12:19:56;;;;;;;3.93;2.67;;;23.20;94.20;;;;;;5057500;28;20781;-46
2022/08/29 12:22:53;;;;;;;6.17;2.93;;;23.20;93.10;;;;;;5050276;28;20440;-45
2022/08/29 12:25:37;;;;;;;4.40;2.23;;;23.30;92.70;;;;;;5052765;28;20212;-47
2022/08/29 12:28:20;;;;;;;3.40;2.47;;;23.30;92.60;;;;;;5050922;28;20473;-46
2022/08/29 12:31:05;;;;;;;5.47;2.63;;;23.30;93.00;;;;;;5051253;28;20423;-42
2022/08/29 12:33:41;;;;;;;3.37;2.27;;;23.40;93.10;;;;;;5044246;28;20427;-43
2022/08/29 12:36:28;;;;;;;2.53;2.27;;;23.40;91.90;;;;;;5050120;28;20779;-44
2022/08/29 12:38:54;;;;;;;4.77;2.73;;;23.40;92.00;;;;;;5038447;28;20447;-43
2022/08/29 12:41:39;;;;;;;3.27;2.50;;;23.50;92.90;;;;;;5051568;28;20455;-47
2022/08/29 12:44:10;;;;;;;5.80;2.97;;;23.50;91.10;;;;;;5050798;28;20185;-43
2022/08/29 12:46:46;;;;;;;4.33;2.50;;;23.60;91.20;;;;;;5050790;28;20463;-44
2022/08/29 12:49:27;;;;;;;7.50;3.03;;;23.60;90.70;;;;;;5049717;28;20467;-45
2022/08/29 12:52:00;;;;;;;4.07;2.53;;;23.60;89.70;;;;;;5051113;28;21097;-44
2022/08/29 12:54:35;;;;;;;5.53;2.70;;;23.60;90.60;;;;;;5050929;28;20424;-44
2022/08/29 12:57:04;;;;;;;4.57;2.70;;;23.60;87.20;;;;;;5048883;28;20509;-45
2022/08/29 12:59:30;;;;;;;3.20;2.70;;;23.60;86.80;;;;;;5049276;28;20435;-45
2022/08/29 13:01:57;;;;;;;4.20;3.00;;;23.60;88.60;;;;;;5046967;28;20947;-47
2022/08/29 13:04:25;;;;;;;6.10;2.93;;;23.60;89.90;;;;;;5050599;28;20666;-45
2022/08/29 13:07:07;;;;;;;4.30;2.77;;;23.60;85.00;;;;;;5049817;28;21300;-41